KHB103 UHMM-UHHH
Flight info
| Callsign | KHB103 |
|---|---|
| Flight time | 2h 11m |
| Altitude | 36000 |
| Route | BANOT5D BANOT L160 NA N222 TOMSU TOMSU6G |
| Aircraft | A320/M-SDE3FGHIRWY/LB1 |
Departure
| Time | 2026-04-25 04:44 |
|---|---|
| Airport | Sokol Airport (UHMM) |
Arrival
| Time | 2026-04-25 06:55 |
|---|---|
| Airport | Khabarovsk Novy Airport (UHHH) |
| Time | Latitude | Longitude | Altitude | Speed | Heading |
|---|---|---|---|---|---|
| 2026-04-25 04:37 | 59.91294 | 150.72677 | 578 ft | 1 kts | 286° |
| 2026-04-25 04:37 | 59.91292 | 150.72693 | 578 ft | 1 kts | 277° |
| 2026-04-25 04:37 | 59.91291 | 150.72699 | 577 ft | 0 kts | 275° |
| 2026-04-25 04:39 | 59.91292 | 150.72685 | 578 ft | 3 kts | 273° |
| 2026-04-25 04:39 | 59.91293 | 150.72631 | 578 ft | 3 kts | 273° |
| 2026-04-25 04:39 | 59.91295 | 150.72553 | 578 ft | 9 kts | 272° |
| 2026-04-25 04:40 | 59.91299 | 150.72406 | 579 ft | 10 kts | 272° |
| 2026-04-25 04:40 | 59.91302 | 150.72276 | 581 ft | 9 kts | 274° |
| 2026-04-25 04:40 | 59.91307 | 150.72127 | 579 ft | 14 kts | 274° |
| 2026-04-25 04:40 | 59.91313 | 150.71905 | 578 ft | 17 kts | 272° |
| 2026-04-25 04:41 | 59.91317 | 150.71751 | 583 ft | 16 kts | 273° |
| 2026-04-25 04:41 | 59.91325 | 150.71429 | 576 ft | 19 kts | 273° |
| 2026-04-25 04:41 | 59.91330 | 150.71277 | 576 ft | 15 kts | 273° |
| 2026-04-25 04:41 | 59.91336 | 150.71053 | 574 ft | 18 kts | 273° |
| 2026-04-25 04:42 | 59.91341 | 150.70850 | 571 ft | 12 kts | 273° |
| 2026-04-25 04:42 | 59.91348 | 150.70602 | 574 ft | 13 kts | 273° |
| 2026-04-25 04:42 | 59.91351 | 150.70473 | 571 ft | 15 kts | 273° |
| 2026-04-25 04:42 | 59.91301 | 150.70269 | 567 ft | 13 kts | 209° |
| 2026-04-25 04:43 | 59.91250 | 150.70213 | 567 ft | 13 kts | 208° |
| 2026-04-25 04:43 | 59.91149 | 150.70162 | 559 ft | 11 kts | 126° |
| 2026-04-25 04:43 | 59.91146 | 150.70236 | 563 ft | 5 kts | 90° |
| 2026-04-25 04:43 | 59.91143 | 150.70435 | 563 ft | 46 kts | 93° |
| 2026-04-25 04:44 | 59.91113 | 150.71546 | 578 ft | 111 kts | 92° |
| 2026-04-25 04:44 | 59.91068 | 150.73452 | 584 ft | 162 kts | 88° |
| 2026-04-25 04:44 | 59.91002 | 150.75660 | 1228 ft | 154 kts | 92° |
| 2026-04-25 04:44 | 59.90900 | 150.77782 | 2033 ft | 154 kts | 87° |
| 2026-04-25 04:45 | 59.90848 | 150.79952 | 2637 ft | 164 kts | 86° |
| 2026-04-25 04:45 | 59.90785 | 150.83249 | 3069 ft | 196 kts | 87° |
| 2026-04-25 04:45 | 59.90745 | 150.85154 | 3327 ft | 213 kts | 88° |
| 2026-04-25 04:45 | 59.90672 | 150.88287 | 3789 ft | 237 kts | 88° |
| 2026-04-25 04:46 | 59.90580 | 150.91635 | 4606 ft | 245 kts | 89° |
| 2026-04-25 04:46 | 59.90477 | 150.95050 | 5561 ft | 248 kts | 89° |
| 2026-04-25 04:46 | 59.90369 | 150.98499 | 6503 ft | 251 kts | 89° |
| 2026-04-25 04:46 | 59.90261 | 151.01998 | 7373 ft | 255 kts | 89° |
| 2026-04-25 04:47 | 59.89879 | 151.05513 | 8201 ft | 268 kts | 111° |
| 2026-04-25 04:47 | 59.88722 | 151.08509 | 9021 ft | 283 kts | 137° |
| 2026-04-25 04:47 | 59.86936 | 151.10283 | 9835 ft | 297 kts | 166° |
| 2026-04-25 04:47 | 59.84874 | 151.10242 | 10579 ft | 306 kts | 195° |
| 2026-04-25 04:48 | 59.82999 | 151.08273 | 11289 ft | 310 kts | 224° |
| 2026-04-25 04:48 | 59.81754 | 151.04717 | 11562 ft | 323 kts | 255° |
| 2026-04-25 04:48 | 59.81282 | 151.00249 | 11763 ft | 341 kts | 266° |
| 2026-04-25 04:48 | 59.80968 | 150.95483 | 12270 ft | 352 kts | 268° |
| 2026-04-25 04:49 | 59.80692 | 150.90610 | 12987 ft | 357 kts | 268° |
| 2026-04-25 04:49 | 59.80414 | 150.85702 | 13749 ft | 361 kts | 268° |
| 2026-04-25 04:49 | 59.80111 | 150.80710 | 14437 ft | 365 kts | 267° |
| 2026-04-25 04:49 | 59.79785 | 150.75684 | 15092 ft | 369 kts | 266° |
| 2026-04-25 04:50 | 59.79442 | 150.70605 | 15715 ft | 373 kts | 266° |
| 2026-04-25 04:50 | 59.79083 | 150.65473 | 16361 ft | 378 kts | 265° |
| 2026-04-25 04:50 | 59.78713 | 150.60284 | 16985 ft | 382 kts | 265° |
| 2026-04-25 04:50 | 59.78338 | 150.55047 | 17604 ft | 386 kts | 265° |
| 2026-04-25 04:51 | 59.77957 | 150.49731 | 18229 ft | 390 kts | 265° |
| 2026-04-25 04:51 | 59.77576 | 150.44390 | 18767 ft | 394 kts | 265° |
| 2026-04-25 04:51 | 59.77192 | 150.38979 | 19335 ft | 397 kts | 265° |
| 2026-04-25 04:51 | 59.76804 | 150.33535 | 19899 ft | 400 kts | 265° |
| 2026-04-25 04:52 | 59.76407 | 150.28050 | 20455 ft | 403 kts | 265° |
| 2026-04-25 04:52 | 59.76005 | 150.22525 | 21003 ft | 406 kts | 265° |
| 2026-04-25 04:52 | 59.75598 | 150.16961 | 21541 ft | 409 kts | 265° |
| 2026-04-25 04:52 | 59.75187 | 150.11360 | 22058 ft | 412 kts | 265° |
| 2026-04-25 04:53 | 59.74770 | 150.05716 | 22564 ft | 415 kts | 265° |
| 2026-04-25 04:53 | 59.74351 | 150.00027 | 23057 ft | 418 kts | 265° |
| 2026-04-25 04:53 | 59.73929 | 149.94317 | 23539 ft | 421 kts | 265° |
| 2026-04-25 04:53 | 59.73498 | 149.88552 | 23934 ft | 424 kts | 265° |
| 2026-04-25 04:54 | 59.73061 | 149.82766 | 24321 ft | 427 kts | 265° |
| 2026-04-25 04:54 | 59.72617 | 149.76917 | 24681 ft | 429 kts | 265° |
| 2026-04-25 04:54 | 59.72174 | 149.71131 | 25033 ft | 432 kts | 265° |
| 2026-04-25 04:54 | 59.71718 | 149.65232 | 25389 ft | 435 kts | 265° |
| 2026-04-25 04:55 | 59.71256 | 149.59299 | 25739 ft | 437 kts | 265° |
| 2026-04-25 04:55 | 59.70787 | 149.53333 | 26084 ft | 440 kts | 265° |
| 2026-04-25 04:55 | 59.70311 | 149.47339 | 26431 ft | 442 kts | 265° |
| 2026-04-25 04:55 | 59.69831 | 149.41312 | 26770 ft | 444 kts | 265° |
| 2026-04-25 04:56 | 59.69348 | 149.35259 | 27110 ft | 446 kts | 266° |
| 2026-04-25 04:56 | 59.68863 | 149.29173 | 27442 ft | 449 kts | 265° |
| 2026-04-25 04:56 | 59.68113 | 149.23136 | 27754 ft | 457 kts | 256° |
| 2026-04-25 04:56 | 59.66856 | 149.17309 | 28071 ft | 464 kts | 246° |
| 2026-04-25 04:57 | 59.65113 | 149.11884 | 28368 ft | 471 kts | 236° |
| 2026-04-25 04:57 | 59.62918 | 149.07017 | 28659 ft | 478 kts | 226° |
| 2026-04-25 04:57 | 59.60383 | 149.02732 | 28937 ft | 481 kts | 222° |
| 2026-04-25 04:57 | 59.57797 | 148.98508 | 29216 ft | 483 kts | 222° |
| 2026-04-25 04:58 | 59.55199 | 148.94272 | 29476 ft | 485 kts | 222° |
| 2026-04-25 04:58 | 59.52588 | 148.90025 | 29731 ft | 487 kts | 222° |
| 2026-04-25 04:58 | 59.49965 | 148.85771 | 29997 ft | 489 kts | 222° |
| 2026-04-25 04:58 | 59.47343 | 148.81535 | 30311 ft | 488 kts | 222° |
| 2026-04-25 04:59 | 59.44729 | 148.77318 | 30591 ft | 487 kts | 222° |
| 2026-04-25 04:59 | 59.42102 | 148.73091 | 30862 ft | 487 kts | 222° |
| 2026-04-25 04:59 | 59.39479 | 148.68873 | 31122 ft | 487 kts | 222° |
| 2026-04-25 04:59 | 59.36859 | 148.64663 | 31410 ft | 487 kts | 223° |
| 2026-04-25 05:00 | 59.34239 | 148.60460 | 31695 ft | 487 kts | 222° |
| 2026-04-25 05:00 | 59.31608 | 148.56253 | 31971 ft | 487 kts | 222° |
| 2026-04-25 05:00 | 59.28977 | 148.52065 | 32251 ft | 488 kts | 222° |
| 2026-04-25 05:00 | 59.26349 | 148.47886 | 32515 ft | 488 kts | 222° |
| 2026-04-25 05:01 | 59.23713 | 148.43695 | 32776 ft | 488 kts | 223° |
| 2026-04-25 05:01 | 59.21071 | 148.39499 | 33047 ft | 489 kts | 222° |
| 2026-04-25 05:01 | 59.18430 | 148.35319 | 33309 ft | 489 kts | 222° |
| 2026-04-25 05:01 | 59.15781 | 148.31139 | 33568 ft | 490 kts | 222° |
| 2026-04-25 05:02 | 59.13130 | 148.26970 | 33830 ft | 490 kts | 222° |
| 2026-04-25 05:02 | 59.10480 | 148.22811 | 34083 ft | 491 kts | 222° |
| 2026-04-25 05:02 | 59.07823 | 148.18652 | 34313 ft | 491 kts | 222° |
| 2026-04-25 05:02 | 59.05157 | 148.14483 | 34555 ft | 491 kts | 222° |
| 2026-04-25 05:03 | 59.02539 | 148.10392 | 34790 ft | 490 kts | 222° |
| 2026-04-25 05:03 | 58.99871 | 148.06234 | 35015 ft | 490 kts | 222° |
| 2026-04-25 05:03 | 58.97216 | 148.02101 | 35227 ft | 490 kts | 221° |
| 2026-04-25 05:03 | 58.94557 | 147.97968 | 35446 ft | 490 kts | 221° |
| 2026-04-25 05:04 | 58.91900 | 147.93846 | 35655 ft | 489 kts | 221° |
| 2026-04-25 05:04 | 58.89242 | 147.89729 | 35866 ft | 489 kts | 221° |
| 2026-04-25 05:04 | 58.86586 | 147.85627 | 36033 ft | 489 kts | 221° |
| 2026-04-25 05:05 | 58.81257 | 147.77437 | 36075 ft | 489 kts | 221° |
| 2026-04-25 05:05 | 58.75923 | 147.69287 | 36078 ft | 489 kts | 221° |
| 2026-04-25 05:06 | 58.70594 | 147.61137 | 36077 ft | 489 kts | 221° |
| 2026-04-25 05:06 | 58.65264 | 147.53018 | 36081 ft | 489 kts | 221° |
| 2026-04-25 05:07 | 58.59923 | 147.44952 | 36083 ft | 488 kts | 220° |
| 2026-04-25 05:07 | 58.54585 | 147.36927 | 36081 ft | 488 kts | 220° |
| 2026-04-25 05:08 | 58.49238 | 147.28893 | 36077 ft | 488 kts | 220° |
| 2026-04-25 05:08 | 58.43890 | 147.20892 | 36076 ft | 488 kts | 220° |
| 2026-04-25 05:09 | 58.38531 | 147.12923 | 36077 ft | 488 kts | 220° |
| 2026-04-25 05:09 | 58.33168 | 147.04977 | 36082 ft | 489 kts | 220° |
| 2026-04-25 05:10 | 58.27800 | 146.97034 | 36085 ft | 489 kts | 220° |
| 2026-04-25 05:10 | 58.22429 | 146.89118 | 36086 ft | 489 kts | 220° |
| 2026-04-25 05:11 | 58.17045 | 146.81242 | 36090 ft | 489 kts | 220° |
| 2026-04-25 05:11 | 58.11656 | 146.73380 | 36092 ft | 489 kts | 220° |
| 2026-04-25 05:12 | 58.03599 | 146.61651 | 36099 ft | 489 kts | 220° |
| 2026-04-25 05:12 | 57.98195 | 146.53848 | 36101 ft | 489 kts | 220° |
| 2026-04-25 05:13 | 57.92777 | 146.46064 | 36103 ft | 489 kts | 220° |
| 2026-04-25 05:13 | 57.87362 | 146.38304 | 36103 ft | 489 kts | 220° |
| 2026-04-25 05:14 | 57.81956 | 146.30565 | 36099 ft | 489 kts | 220° |
| 2026-04-25 05:15 | 57.73832 | 146.18986 | 36097 ft | 489 kts | 220° |
| 2026-04-25 05:15 | 57.68403 | 146.11315 | 36100 ft | 489 kts | 220° |
| 2026-04-25 05:16 | 57.62977 | 146.03661 | 36097 ft | 489 kts | 220° |
| 2026-04-25 05:16 | 57.57543 | 145.96012 | 36094 ft | 489 kts | 220° |
| 2026-04-25 05:17 | 57.52105 | 145.88408 | 36096 ft | 489 kts | 220° |
| 2026-04-25 05:17 | 57.46658 | 145.80834 | 36091 ft | 489 kts | 220° |
| 2026-04-25 05:18 | 57.41207 | 145.73266 | 36089 ft | 489 kts | 220° |
| 2026-04-25 05:18 | 57.35759 | 145.65730 | 36083 ft | 488 kts | 220° |
| 2026-04-25 05:19 | 57.30313 | 145.58226 | 36085 ft | 488 kts | 220° |
| 2026-04-25 05:19 | 57.24892 | 145.50784 | 36076 ft | 488 kts | 220° |
| 2026-04-25 05:20 | 57.19440 | 145.43319 | 36082 ft | 488 kts | 220° |
| 2026-04-25 05:20 | 57.13980 | 145.35866 | 36079 ft | 488 kts | 220° |
| 2026-04-25 05:21 | 57.08518 | 145.28454 | 36079 ft | 488 kts | 220° |
| 2026-04-25 05:21 | 57.03051 | 145.21069 | 36084 ft | 488 kts | 220° |
| 2026-04-25 05:22 | 56.97577 | 145.13710 | 36084 ft | 488 kts | 220° |
| 2026-04-25 05:22 | 56.92096 | 145.06351 | 36091 ft | 488 kts | 220° |
| 2026-04-25 05:23 | 56.86622 | 144.99035 | 36090 ft | 487 kts | 219° |
| 2026-04-25 05:23 | 56.81144 | 144.91735 | 36094 ft | 487 kts | 219° |
| 2026-04-25 05:24 | 56.75664 | 144.84473 | 36096 ft | 487 kts | 219° |
| 2026-04-25 05:24 | 56.70188 | 144.77237 | 36097 ft | 486 kts | 219° |
| 2026-04-25 05:25 | 56.64745 | 144.70062 | 36093 ft | 486 kts | 219° |
| 2026-04-25 05:25 | 56.59274 | 144.62856 | 36092 ft | 486 kts | 219° |
| 2026-04-25 05:26 | 56.53794 | 144.55685 | 36097 ft | 485 kts | 219° |
| 2026-04-25 05:26 | 56.48317 | 144.48553 | 36098 ft | 485 kts | 219° |
| 2026-04-25 05:27 | 56.42847 | 144.41434 | 36100 ft | 484 kts | 219° |
| 2026-04-25 05:27 | 56.37372 | 144.34354 | 36098 ft | 484 kts | 219° |
| 2026-04-25 05:28 | 56.31903 | 144.27308 | 36100 ft | 483 kts | 219° |
| 2026-04-25 05:28 | 56.26423 | 144.20297 | 36099 ft | 483 kts | 218° |
| 2026-04-25 05:29 | 56.20919 | 144.13408 | 36100 ft | 482 kts | 218° |
| 2026-04-25 05:29 | 56.16329 | 144.07724 | 36100 ft | 482 kts | 218° |
| 2026-04-25 05:30 | 56.10816 | 144.00901 | 36104 ft | 481 kts | 218° |
| 2026-04-25 05:30 | 56.05311 | 143.94094 | 36105 ft | 480 kts | 218° |
| 2026-04-25 05:31 | 55.99818 | 143.87299 | 36103 ft | 480 kts | 218° |
| 2026-04-25 05:31 | 55.94318 | 143.80534 | 36106 ft | 479 kts | 218° |
| 2026-04-25 05:32 | 55.87935 | 143.72735 | 36105 ft | 478 kts | 218° |
| 2026-04-25 05:32 | 55.83374 | 143.67165 | 36104 ft | 478 kts | 218° |
| 2026-04-25 05:33 | 55.77863 | 143.60442 | 36107 ft | 477 kts | 218° |
| 2026-04-25 05:33 | 55.72431 | 143.53843 | 36105 ft | 476 kts | 217° |
| 2026-04-25 05:34 | 55.66957 | 143.47255 | 36107 ft | 475 kts | 217° |
| 2026-04-25 05:34 | 55.61492 | 143.40678 | 36106 ft | 475 kts | 217° |
| 2026-04-25 05:35 | 55.56022 | 143.34106 | 36109 ft | 474 kts | 217° |
| 2026-04-25 05:35 | 55.50565 | 143.27571 | 36104 ft | 473 kts | 217° |
| 2026-04-25 05:36 | 55.45103 | 143.21072 | 36107 ft | 473 kts | 217° |
| 2026-04-25 05:36 | 55.39653 | 143.14599 | 36105 ft | 472 kts | 217° |
| 2026-04-25 05:37 | 55.34211 | 143.08144 | 36103 ft | 471 kts | 217° |
| 2026-04-25 05:37 | 55.28767 | 143.01718 | 36106 ft | 471 kts | 217° |
| 2026-04-25 05:38 | 55.23325 | 142.95336 | 36106 ft | 470 kts | 216° |
| 2026-04-25 05:38 | 55.17922 | 142.89028 | 36100 ft | 470 kts | 216° |
| 2026-04-25 05:39 | 55.12436 | 142.82710 | 36105 ft | 469 kts | 216° |
| 2026-04-25 05:39 | 55.06995 | 142.76509 | 36099 ft | 469 kts | 216° |
| 2026-04-25 05:40 | 55.01547 | 142.70294 | 36100 ft | 468 kts | 216° |
| 2026-04-25 05:40 | 54.96108 | 142.64074 | 36099 ft | 467 kts | 216° |
| 2026-04-25 05:41 | 54.90663 | 142.57878 | 36099 ft | 467 kts | 215° |
| 2026-04-25 05:41 | 54.85223 | 142.51724 | 36106 ft | 466 kts | 215° |
| 2026-04-25 05:42 | 54.79790 | 142.45594 | 36103 ft | 465 kts | 215° |
| 2026-04-25 05:42 | 54.74397 | 142.39532 | 36096 ft | 465 kts | 215° |
| 2026-04-25 05:43 | 54.68942 | 142.33406 | 36097 ft | 464 kts | 215° |
| 2026-04-25 05:43 | 54.63527 | 142.27344 | 36093 ft | 464 kts | 214° |
| 2026-04-25 05:44 | 54.58147 | 142.21355 | 36092 ft | 463 kts | 214° |
| 2026-04-25 05:44 | 54.52734 | 142.15347 | 36090 ft | 462 kts | 214° |
| 2026-04-25 05:45 | 54.47331 | 142.09374 | 36091 ft | 462 kts | 214° |
| 2026-04-25 05:45 | 54.41925 | 142.03398 | 36088 ft | 461 kts | 214° |
| 2026-04-25 05:46 | 54.36529 | 141.97464 | 36085 ft | 461 kts | 214° |
| 2026-04-25 05:46 | 54.31135 | 141.91561 | 36080 ft | 460 kts | 214° |
| 2026-04-25 05:47 | 54.25744 | 141.85669 | 36080 ft | 459 kts | 214° |
| 2026-04-25 05:47 | 54.20361 | 141.79798 | 36082 ft | 459 kts | 214° |
| 2026-04-25 05:48 | 54.14976 | 141.73939 | 36079 ft | 458 kts | 213° |
| 2026-04-25 05:48 | 54.09627 | 141.68153 | 36074 ft | 458 kts | 213° |
| 2026-04-25 05:49 | 54.04250 | 141.62356 | 36074 ft | 457 kts | 213° |
| 2026-04-25 05:49 | 53.98874 | 141.56565 | 36073 ft | 456 kts | 213° |
| 2026-04-25 05:50 | 53.93501 | 141.50802 | 36071 ft | 456 kts | 213° |
| 2026-04-25 05:50 | 53.88136 | 141.45070 | 36067 ft | 455 kts | 213° |
| 2026-04-25 05:51 | 53.82773 | 141.39354 | 36061 ft | 455 kts | 213° |
| 2026-04-25 05:51 | 53.77414 | 141.33652 | 36067 ft | 455 kts | 213° |
| 2026-04-25 05:52 | 53.72094 | 141.28020 | 36052 ft | 454 kts | 213° |
| 2026-04-25 05:52 | 53.66735 | 141.22362 | 36046 ft | 454 kts | 213° |
| 2026-04-25 05:53 | 53.61386 | 141.16729 | 36045 ft | 453 kts | 213° |
| 2026-04-25 05:53 | 53.56044 | 141.11115 | 36042 ft | 452 kts | 212° |
| 2026-04-25 05:54 | 53.50705 | 141.05517 | 36039 ft | 452 kts | 212° |
| 2026-04-25 05:54 | 53.42705 | 140.97170 | 36033 ft | 450 kts | 212° |
| 2026-04-25 05:55 | 53.37381 | 140.91643 | 36033 ft | 450 kts | 212° |
| 2026-04-25 05:55 | 53.32063 | 140.86137 | 36026 ft | 449 kts | 212° |
| 2026-04-25 05:56 | 53.26752 | 140.80650 | 36023 ft | 448 kts | 212° |
| 2026-04-25 05:56 | 53.21448 | 140.75187 | 36021 ft | 448 kts | 211° |
| 2026-04-25 05:57 | 53.16145 | 140.69746 | 36018 ft | 447 kts | 212° |
| 2026-04-25 05:57 | 53.11106 | 140.63697 | 36011 ft | 446 kts | 217° |
| 2026-04-25 05:58 | 53.06137 | 140.57503 | 36006 ft | 446 kts | 217° |
| 2026-04-25 05:58 | 53.01208 | 140.51365 | 36003 ft | 445 kts | 216° |
| 2026-04-25 05:59 | 52.96245 | 140.45226 | 35998 ft | 445 kts | 216° |
| 2026-04-25 05:59 | 52.91273 | 140.39099 | 35993 ft | 444 kts | 216° |
| 2026-04-25 06:00 | 52.86316 | 140.33003 | 35989 ft | 444 kts | 216° |
| 2026-04-25 06:00 | 52.81355 | 140.26925 | 35986 ft | 443 kts | 216° |
| 2026-04-25 06:01 | 52.76401 | 140.20870 | 35977 ft | 443 kts | 215° |
| 2026-04-25 06:01 | 52.71450 | 140.14827 | 35967 ft | 442 kts | 215° |
| 2026-04-25 06:02 | 52.66491 | 140.08803 | 35968 ft | 442 kts | 215° |
| 2026-04-25 06:02 | 52.61554 | 140.02860 | 35970 ft | 442 kts | 214° |
| 2026-04-25 06:03 | 52.56498 | 139.97114 | 35969 ft | 442 kts | 212° |
| 2026-04-25 06:03 | 52.51394 | 139.91497 | 35967 ft | 441 kts | 212° |
| 2026-04-25 06:04 | 52.46303 | 139.85867 | 35967 ft | 441 kts | 212° |
| 2026-04-25 06:04 | 52.41227 | 139.80206 | 35970 ft | 441 kts | 213° |
| 2026-04-25 06:05 | 52.36156 | 139.74537 | 35968 ft | 441 kts | 213° |
| 2026-04-25 06:05 | 52.31081 | 139.68898 | 35973 ft | 441 kts | 212° |
| 2026-04-25 06:06 | 52.25997 | 139.63264 | 35975 ft | 441 kts | 212° |
| 2026-04-25 06:06 | 52.20913 | 139.57654 | 35972 ft | 441 kts | 212° |
| 2026-04-25 06:07 | 52.15819 | 139.52060 | 35971 ft | 441 kts | 212° |
| 2026-04-25 06:07 | 52.10728 | 139.46472 | 35969 ft | 441 kts | 212° |
| 2026-04-25 06:08 | 52.05633 | 139.40886 | 35972 ft | 441 kts | 212° |
| 2026-04-25 06:08 | 52.00534 | 139.35323 | 35970 ft | 441 kts | 212° |
| 2026-04-25 06:09 | 51.95470 | 139.29807 | 35966 ft | 441 kts | 212° |
| 2026-04-25 06:09 | 51.90374 | 139.24277 | 35965 ft | 441 kts | 212° |
| 2026-04-25 06:10 | 51.85273 | 139.18761 | 35963 ft | 441 kts | 212° |
| 2026-04-25 06:10 | 51.80179 | 139.13266 | 35957 ft | 440 kts | 212° |
| 2026-04-25 06:11 | 51.75076 | 139.07779 | 35951 ft | 440 kts | 212° |
| 2026-04-25 06:11 | 51.69977 | 139.02310 | 35947 ft | 440 kts | 212° |
| 2026-04-25 06:12 | 51.64873 | 138.96845 | 35947 ft | 440 kts | 212° |
| 2026-04-25 06:12 | 51.59782 | 138.91399 | 35942 ft | 439 kts | 212° |
| 2026-04-25 06:13 | 51.54690 | 138.85980 | 35938 ft | 439 kts | 212° |
| 2026-04-25 06:14 | 51.47064 | 138.77890 | 35935 ft | 438 kts | 212° |
| 2026-04-25 06:14 | 51.41981 | 138.72522 | 35932 ft | 437 kts | 212° |
| 2026-04-25 06:15 | 51.36945 | 138.67218 | 35940 ft | 436 kts | 211° |
| 2026-04-25 06:15 | 51.31845 | 138.61850 | 35936 ft | 435 kts | 211° |
| 2026-04-25 06:16 | 51.26821 | 138.56572 | 35928 ft | 435 kts | 211° |
| 2026-04-25 06:16 | 51.21756 | 138.51280 | 35928 ft | 434 kts | 211° |
| 2026-04-25 06:17 | 51.16691 | 138.46011 | 35932 ft | 434 kts | 211° |
| 2026-04-25 06:17 | 51.11634 | 138.40747 | 35928 ft | 434 kts | 211° |
| 2026-04-25 06:18 | 51.06573 | 138.35491 | 35930 ft | 434 kts | 211° |
| 2026-04-25 06:18 | 51.01502 | 138.30250 | 35936 ft | 435 kts | 211° |
| 2026-04-25 06:19 | 50.97283 | 138.25897 | 35941 ft | 435 kts | 211° |
| 2026-04-25 06:19 | 50.92205 | 138.20673 | 35946 ft | 435 kts | 212° |
| 2026-04-25 06:20 | 50.87394 | 138.14828 | 35953 ft | 436 kts | 216° |
| 2026-04-25 06:20 | 50.82644 | 138.08966 | 35965 ft | 435 kts | 216° |
| 2026-04-25 06:21 | 50.77065 | 138.02114 | 35968 ft | 434 kts | 216° |
| 2026-04-25 06:21 | 50.73109 | 137.97261 | 35971 ft | 433 kts | 216° |
| 2026-04-25 06:22 | 50.68354 | 137.91448 | 35974 ft | 432 kts | 216° |
| 2026-04-25 06:22 | 50.63609 | 137.85651 | 35975 ft | 431 kts | 216° |
| 2026-04-25 06:23 | 50.58863 | 137.79881 | 35974 ft | 430 kts | 216° |
| 2026-04-25 06:23 | 50.54114 | 137.74131 | 35972 ft | 429 kts | 216° |
| 2026-04-25 06:24 | 50.49379 | 137.68404 | 35971 ft | 429 kts | 216° |
| 2026-04-25 06:24 | 50.44652 | 137.62699 | 35969 ft | 428 kts | 216° |
| 2026-04-25 06:25 | 50.39936 | 137.57015 | 35969 ft | 427 kts | 216° |
| 2026-04-25 06:25 | 50.35170 | 137.51474 | 35966 ft | 427 kts | 214° |
| 2026-04-25 06:26 | 50.30269 | 137.46240 | 35964 ft | 427 kts | 213° |
| 2026-04-25 06:26 | 50.25345 | 137.41061 | 35961 ft | 426 kts | 213° |
| 2026-04-25 06:27 | 50.20445 | 137.35836 | 35957 ft | 426 kts | 213° |
| 2026-04-25 06:27 | 50.15592 | 137.30632 | 35954 ft | 426 kts | 214° |
| 2026-04-25 06:28 | 50.10702 | 137.25393 | 35956 ft | 426 kts | 214° |
| 2026-04-25 06:28 | 50.05799 | 137.20188 | 35958 ft | 426 kts | 213° |
| 2026-04-25 06:29 | 50.00875 | 137.15044 | 35953 ft | 426 kts | 213° |
| 2026-04-25 06:29 | 49.95948 | 137.09918 | 35950 ft | 426 kts | 214° |
| 2026-04-25 06:29 | 49.93482 | 137.07348 | 35718 ft | 428 kts | 214° |
| 2026-04-25 06:30 | 49.90995 | 137.04750 | 34716 ft | 434 kts | 213° |
| 2026-04-25 06:30 | 49.88493 | 137.02137 | 33932 ft | 432 kts | 213° |
| 2026-04-25 06:30 | 49.86001 | 136.99536 | 32934 ft | 432 kts | 212° |
| 2026-04-25 06:30 | 49.83501 | 136.96936 | 31968 ft | 433 kts | 212° |
| 2026-04-25 06:31 | 49.80998 | 136.94339 | 31004 ft | 433 kts | 211° |
| 2026-04-25 06:31 | 49.78491 | 136.91743 | 30012 ft | 434 kts | 211° |
| 2026-04-25 06:31 | 49.75973 | 136.89138 | 28996 ft | 433 kts | 211° |
| 2026-04-25 06:31 | 49.73510 | 136.86593 | 28520 ft | 421 kts | 211° |
| 2026-04-25 06:32 | 49.71091 | 136.84099 | 27850 ft | 414 kts | 211° |
| 2026-04-25 06:32 | 49.68708 | 136.81641 | 27211 ft | 408 kts | 211° |
| 2026-04-25 06:32 | 49.66363 | 136.79223 | 26573 ft | 403 kts | 211° |
| 2026-04-25 06:32 | 49.64050 | 136.76847 | 25986 ft | 397 kts | 210° |
| 2026-04-25 06:33 | 49.61764 | 136.74505 | 25379 ft | 392 kts | 210° |
| 2026-04-25 06:33 | 49.59504 | 136.72191 | 24788 ft | 386 kts | 210° |
| 2026-04-25 06:33 | 49.57282 | 136.69916 | 24210 ft | 382 kts | 210° |
| 2026-04-25 06:33 | 49.55083 | 136.67667 | 23644 ft | 377 kts | 210° |
| 2026-04-25 06:34 | 49.52910 | 136.65445 | 23024 ft | 372 kts | 210° |
| 2026-04-25 06:34 | 49.50803 | 136.63290 | 22495 ft | 365 kts | 210° |
| 2026-04-25 06:34 | 49.48703 | 136.61145 | 22006 ft | 359 kts | 210° |
| 2026-04-25 06:34 | 49.46640 | 136.59041 | 21512 ft | 354 kts | 210° |
| 2026-04-25 06:35 | 49.44630 | 136.56893 | 21011 ft | 351 kts | 215° |
| 2026-04-25 06:35 | 49.42851 | 136.54343 | 20526 ft | 349 kts | 221° |
| 2026-04-25 06:35 | 49.41156 | 136.51695 | 20031 ft | 345 kts | 221° |
| 2026-04-25 06:35 | 49.39479 | 136.49083 | 19584 ft | 342 kts | 221° |
| 2026-04-25 06:36 | 49.37816 | 136.46502 | 19120 ft | 338 kts | 221° |
| 2026-04-25 06:36 | 49.36170 | 136.43952 | 18662 ft | 334 kts | 222° |
| 2026-04-25 06:36 | 49.34539 | 136.41429 | 18179 ft | 332 kts | 222° |
| 2026-04-25 06:36 | 49.32926 | 136.38932 | 17675 ft | 328 kts | 222° |
| 2026-04-25 06:37 | 49.31326 | 136.36460 | 17191 ft | 325 kts | 223° |
| 2026-04-25 06:37 | 49.29741 | 136.34013 | 16718 ft | 321 kts | 223° |
| 2026-04-25 06:37 | 49.28174 | 136.31595 | 16237 ft | 319 kts | 223° |
| 2026-04-25 06:37 | 49.26615 | 136.29196 | 15757 ft | 317 kts | 224° |
| 2026-04-25 06:38 | 49.25065 | 136.26813 | 15268 ft | 315 kts | 224° |
| 2026-04-25 06:38 | 49.23520 | 136.24438 | 14780 ft | 314 kts | 225° |
| 2026-04-25 06:38 | 49.21983 | 136.22075 | 14295 ft | 313 kts | 225° |
| 2026-04-25 06:38 | 49.20449 | 136.19718 | 13797 ft | 312 kts | 225° |
| 2026-04-25 06:39 | 49.18916 | 136.17363 | 13262 ft | 311 kts | 225° |
| 2026-04-25 06:39 | 49.17390 | 136.15029 | 12760 ft | 309 kts | 226° |
| 2026-04-25 06:39 | 49.15875 | 136.12713 | 12253 ft | 307 kts | 226° |
| 2026-04-25 06:39 | 49.14374 | 136.10415 | 11748 ft | 305 kts | 226° |
| 2026-04-25 06:40 | 49.12878 | 136.08126 | 11234 ft | 303 kts | 226° |
| 2026-04-25 06:40 | 49.11413 | 136.05885 | 10735 ft | 301 kts | 226° |
| 2026-04-25 06:40 | 49.09950 | 136.03651 | 10502 ft | 291 kts | 226° |
| 2026-04-25 06:40 | 49.08546 | 136.01514 | 10360 ft | 279 kts | 226° |
| 2026-04-25 06:41 | 49.07196 | 135.99461 | 10225 ft | 268 kts | 227° |
| 2026-04-25 06:41 | 49.05889 | 135.97475 | 9956 ft | 263 kts | 227° |
| 2026-04-25 06:41 | 49.04602 | 135.95520 | 9786 ft | 260 kts | 227° |
| 2026-04-25 06:41 | 49.03320 | 135.93567 | 9640 ft | 260 kts | 227° |
| 2026-04-25 06:42 | 49.02040 | 135.91621 | 9504 ft | 260 kts | 227° |
| 2026-04-25 06:42 | 49.00755 | 135.89675 | 9187 ft | 262 kts | 227° |
| 2026-04-25 06:42 | 48.99459 | 135.87713 | 8752 ft | 261 kts | 227° |
| 2026-04-25 06:42 | 48.98166 | 135.85756 | 8247 ft | 262 kts | 227° |
| 2026-04-25 06:43 | 48.96900 | 135.83818 | 7741 ft | 255 kts | 227° |
| 2026-04-25 06:43 | 48.95680 | 135.81886 | 7262 ft | 248 kts | 228° |
| 2026-04-25 06:43 | 48.94541 | 135.80057 | 7130 ft | 236 kts | 229° |
| 2026-04-25 06:43 | 48.93440 | 135.78287 | 7003 ft | 225 kts | 229° |
| 2026-04-25 06:44 | 48.92390 | 135.76595 | 6831 ft | 217 kts | 229° |
| 2026-04-25 06:44 | 48.91370 | 135.74959 | 6811 ft | 213 kts | 229° |
| 2026-04-25 06:44 | 48.90344 | 135.73334 | 6737 ft | 213 kts | 228° |
| 2026-04-25 06:44 | 48.89314 | 135.71712 | 6667 ft | 213 kts | 228° |
| 2026-04-25 06:45 | 48.88284 | 135.70094 | 6575 ft | 213 kts | 228° |
| 2026-04-25 06:45 | 48.87253 | 135.68479 | 6475 ft | 213 kts | 228° |
| 2026-04-25 06:45 | 48.86223 | 135.66866 | 6371 ft | 212 kts | 228° |
| 2026-04-25 06:45 | 48.85196 | 135.65258 | 6275 ft | 212 kts | 228° |
| 2026-04-25 06:46 | 48.84168 | 135.63652 | 6174 ft | 212 kts | 228° |
| 2026-04-25 06:46 | 48.83144 | 135.62053 | 6082 ft | 212 kts | 228° |
| 2026-04-25 06:46 | 48.82114 | 135.60445 | 5971 ft | 211 kts | 228° |
| 2026-04-25 06:46 | 48.81771 | 135.59908 | 5936 ft | 211 kts | 228° |
| 2026-04-25 06:47 | 48.81144 | 135.58923 | 5911 ft | 211 kts | 228° |
| 2026-04-25 06:47 | 48.80156 | 135.57380 | 5809 ft | 210 kts | 228° |
| 2026-04-25 06:47 | 48.79138 | 135.55765 | 5738 ft | 216 kts | 233° |
| 2026-04-25 06:48 | 48.78292 | 135.53882 | 5618 ft | 214 kts | 234° |
| 2026-04-25 06:48 | 48.77275 | 135.52221 | 5512 ft | 219 kts | 226° |
| 2026-04-25 06:48 | 48.76176 | 135.50672 | 5379 ft | 213 kts | 225° |
| 2026-04-25 06:48 | 48.75050 | 135.49117 | 5170 ft | 221 kts | 225° |
| 2026-04-25 06:49 | 48.73930 | 135.47574 | 5062 ft | 219 kts | 225° |
| 2026-04-25 06:49 | 48.72799 | 135.46011 | 4846 ft | 223 kts | 225° |
| 2026-04-25 06:49 | 48.71650 | 135.44426 | 4597 ft | 223 kts | 224° |
| 2026-04-25 06:49 | 48.70510 | 135.42855 | 4322 ft | 220 kts | 225° |
| 2026-04-25 06:50 | 48.69392 | 135.41314 | 4043 ft | 216 kts | 225° |
| 2026-04-25 06:50 | 48.68291 | 135.39798 | 3777 ft | 212 kts | 225° |
| 2026-04-25 06:50 | 48.67211 | 135.38312 | 3521 ft | 208 kts | 225° |
| 2026-04-25 06:50 | 48.66152 | 135.36856 | 3265 ft | 202 kts | 225° |
| 2026-04-25 06:51 | 48.65160 | 135.35494 | 3023 ft | 188 kts | 225° |
| 2026-04-25 06:51 | 48.64222 | 135.34205 | 2820 ft | 172 kts | 225° |
| 2026-04-25 06:51 | 48.63387 | 135.33060 | 2603 ft | 156 kts | 226° |
| 2026-04-25 06:51 | 48.62634 | 135.32027 | 2425 ft | 139 kts | 226° |
| 2026-04-25 06:52 | 48.61939 | 135.31071 | 2249 ft | 133 kts | 226° |
| 2026-04-25 06:52 | 48.61262 | 135.30142 | 2091 ft | 131 kts | 226° |
| 2026-04-25 06:52 | 48.60590 | 135.29220 | 1924 ft | 130 kts | 226° |
| 2026-04-25 06:52 | 48.59924 | 135.28306 | 1765 ft | 130 kts | 226° |
| 2026-04-25 06:53 | 48.59250 | 135.27383 | 1599 ft | 129 kts | 226° |
| 2026-04-25 06:53 | 48.58594 | 135.26483 | 1442 ft | 129 kts | 226° |
| 2026-04-25 06:53 | 48.57929 | 135.25573 | 1280 ft | 129 kts | 226° |
| 2026-04-25 06:53 | 48.57266 | 135.24665 | 1107 ft | 129 kts | 226° |
| 2026-04-25 06:54 | 48.56605 | 135.23762 | 936 ft | 128 kts | 226° |
| 2026-04-25 06:54 | 48.55937 | 135.22848 | 764 ft | 128 kts | 227° |
| 2026-04-25 06:54 | 48.55279 | 135.21948 | 605 ft | 129 kts | 225° |
| 2026-04-25 06:54 | 48.54604 | 135.21026 | 429 ft | 129 kts | 226° |
| 2026-04-25 06:55 | 48.53945 | 135.20125 | 293 ft | 130 kts | 227° |
| 2026-04-25 06:55 | 48.53321 | 135.19273 | 251 ft | 94 kts | 222° |
| 2026-04-25 06:55 | 48.53030 | 135.18873 | 249 ft | 39 kts | 222° |
| 2026-04-25 06:55 | 48.52861 | 135.18646 | 247 ft | 23 kts | 223° |
| 2026-04-25 06:56 | 48.52772 | 135.18528 | 247 ft | 18 kts | 221° |
| 2026-04-25 06:56 | 48.52670 | 135.18389 | 244 ft | 21 kts | 227° |
| 2026-04-25 06:56 | 48.52561 | 135.18236 | 241 ft | 23 kts | 221° |
| 2026-04-25 06:56 | 48.52464 | 135.18105 | 241 ft | 17 kts | 221° |
| 2026-04-25 06:57 | 48.52376 | 135.17984 | 243 ft | 18 kts | 223° |
| 2026-04-25 06:57 | 48.52311 | 135.17892 | 245 ft | 9 kts | 225° |
| 2026-04-25 06:57 | 48.52288 | 135.17832 | 246 ft | 5 kts | 257° |
| 2026-04-25 06:57 | 48.52295 | 135.17786 | 246 ft | 4 kts | 294° |
| 2026-04-25 06:58 | 48.52307 | 135.17755 | 246 ft | 3 kts | 302° |
| 2026-04-25 06:58 | 48.52322 | 135.17727 | 246 ft | 5 kts | 310° |
| 2026-04-25 06:58 | 48.52355 | 135.17672 | 246 ft | 9 kts | 314° |
| 2026-04-25 06:58 | 48.52405 | 135.17590 | 246 ft | 12 kts | 313° |
| 2026-04-25 06:59 | 48.52465 | 135.17490 | 245 ft | 13 kts | 312° |
| 2026-04-25 06:59 | 48.52532 | 135.17387 | 245 ft | 12 kts | 313° |
| 2026-04-25 06:59 | 48.52564 | 135.17326 | 245 ft | 8 kts | 310° |
| 2026-04-25 06:59 | 48.52574 | 135.17309 | 245 ft | 0 kts | 311° |
| 2026-04-25 07:00 | 48.52576 | 135.17307 | 245 ft | 1 kts | 317° |
| 2026-04-25 07:00 | 48.52581 | 135.17299 | 245 ft | 1 kts | 314° |
| 2026-04-25 07:00 | 48.52585 | 135.17292 | 245 ft | 0 kts | 313° |
| 2026-04-25 07:00 | 48.52587 | 135.17289 | 245 ft | 0 kts | 312° |